sensor_id;sensor_type;location;lat;lon;timestamp;pressure;altitude;pressure_sealevel;temperature;humidity
46583;BME280;32309;48.858;8.252;2022-07-09T00:00:38;101440.84;;;18.24;47.79
46583;BME280;32309;48.858;8.252;2022-07-09T00:02:39;101435.09;;;18.19;48.56
46583;BME280;32309;48.858;8.252;2022-07-09T00:04:39;101425.75;;;18.15;48.02
46583;BME280;32309;48.858;8.252;2022-07-09T00:06:39;101429.91;;;18.17;48.09
46583;BME280;32309;48.858;8.252;2022-07-09T00:08:40;101438.88;;;18.15;47.84
46583;BME280;32309;48.858;8.252;2022-07-09T00:10:40;101427.53;;;18.14;47.64
46583;BME280;32309;48.858;8.252;2022-07-09T00:12:40;101430.56;;;18.08;48.36
46583;BME280;32309;48.858;8.252;2022-07-09T00:14:40;101427.47;;;18.03;48.56
46583;BME280;32309;48.858;8.252;2022-07-09T00:16:41;101435.41;;;18.01;48.72
46583;BME280;32309;48.858;8.252;2022-07-09T00:18:41;101429.13;;;18.04;48.40
46583;BME280;32309;48.858;8.252;2022-07-09T00:20:41;101426.63;;;18.02;48.04
46583;BME280;32309;48.858;8.252;2022-07-09T00:22:42;101430.28;;;18.00;48.17
46583;BME280;32309;48.858;8.252;2022-07-09T00:24:42;101429.66;;;17.96;48.36
46583;BME280;32309;48.858;8.252;2022-07-09T00:26:42;101424.72;;;17.91;48.53
46583;BME280;32309;48.858;8.252;2022-07-09T00:28:45;101423.25;;;17.87;48.34
46583;BME280;32309;48.858;8.252;2022-07-09T00:30:45;101416.44;;;17.85;48.26
46583;BME280;32309;48.858;8.252;2022-07-09T00:32:46;101419.91;;;17.85;48.41
46583;BME280;32309;48.858;8.252;2022-07-09T00:34:50;101417.28;;;17.85;47.71
46583;BME280;32309;48.858;8.252;2022-07-09T00:36:50;101417.63;;;17.80;48.68
46583;BME280;32309;48.858;8.252;2022-07-09T00:38:50;101410.47;;;17.83;48.68
46583;BME280;32309;48.858;8.252;2022-07-09T00:40:53;101412.38;;;17.80;48.15
46583;BME280;32309;48.858;8.252;2022-07-09T00:42:53;101413.41;;;17.78;49.19
46583;BME280;32309;48.858;8.252;2022-07-09T00:44:56;101405.84;;;17.73;49.07
46583;BME280;32309;48.858;8.252;2022-07-09T00:47:05;101405.34;;;17.68;48.77
46583;BME280;32309;48.858;8.252;2022-07-09T00:49:06;101406.31;;;17.67;48.65
46583;BME280;32309;48.858;8.252;2022-07-09T00:51:17;101403.16;;;17.62;49.22
46583;BME280;32309;48.858;8.252;2022-07-09T00:53:18;101405.47;;;17.54;48.91
46583;BME280;32309;48.858;8.252;2022-07-09T00:56:07;101402.22;;;17.50;49.82
46583;BME280;32309;48.858;8.252;2022-07-09T00:58:08;101397.69;;;17.52;48.54
46583;BME280;32309;48.858;8.252;2022-07-09T01:00:19;101396.03;;;17.51;49.03
46583;BME280;32309;48.858;8.252;2022-07-09T01:02:34;101386.63;;;17.49;49.38
46583;BME280;32309;48.858;8.252;2022-07-09T01:04:37;101385.75;;;17.48;49.58
46583;BME280;32309;48.858;8.252;2022-07-09T01:06:40;101387.66;;;17.46;49.64
46583;BME280;32309;48.858;8.252;2022-07-09T01:08:46;101391.41;;;17.42;49.65
46583;BME280;32309;48.858;8.252;2022-07-09T01:10:50;101387.84;;;17.43;49.33
46583;BME280;32309;48.858;8.252;2022-07-09T01:12:51;101386.09;;;17.43;48.94
46583;BME280;32309;48.858;8.252;2022-07-09T01:14:58;101385.56;;;17.38;49.57
46583;BME280;32309;48.858;8.252;2022-07-09T01:17:03;101381.78;;;17.29;50.03
46583;BME280;32309;48.858;8.252;2022-07-09T01:19:07;101376.66;;;17.28;50.03
46583;BME280;32309;48.858;8.252;2022-07-09T01:21:18;101378.53;;;17.26;49.92
46583;BME280;32309;48.858;8.252;2022-07-09T01:23:19;101375.72;;;17.29;50.33
46583;BME280;32309;48.858;8.252;2022-07-09T01:27:44;101384.50;;;17.28;50.11
46583;BME280;32309;48.858;8.252;2022-07-09T01:29:45;101370.66;;;17.26;49.23
46583;BME280;32309;48.858;8.252;2022-07-09T01:31:49;101372.69;;;17.22;50.20
46583;BME280;32309;48.858;8.252;2022-07-09T01:33:49;101365.75;;;17.21;50.03
46583;BME280;32309;48.858;8.252;2022-07-09T01:35:50;101366.38;;;17.25;50.60
46583;BME280;32309;48.858;8.252;2022-07-09T01:37:50;101371.81;;;17.22;50.08
46583;BME280;32309;48.858;8.252;2022-07-09T01:39:51;101363.84;;;17.23;50.24
46583;BME280;32309;48.858;8.252;2022-07-09T01:41:51;101363.03;;;17.23;50.52
46583;BME280;32309;48.858;8.252;2022-07-09T01:43:51;101362.91;;;17.24;49.56
46583;BME280;32309;48.858;8.252;2022-07-09T01:48:22;101364.81;;;17.22;49.92
46583;BME280;32309;48.858;8.252;2022-07-09T01:50:25;101375.31;;;17.22;49.95
46583;BME280;32309;48.858;8.252;2022-07-09T01:52:30;101370.88;;;17.23;50.07
46583;BME280;32309;48.858;8.252;2022-07-09T01:54:31;101371.72;;;17.23;49.50
46583;BME280;32309;48.858;8.252;2022-07-09T01:56:31;101367.63;;;17.19;50.25
46583;BME280;32309;48.858;8.252;2022-07-09T01:58:33;101368.56;;;17.18;50.05
46583;BME280;32309;48.858;8.252;2022-07-09T02:00:34;101366.81;;;17.19;50.28
46583;BME280;32309;48.858;8.252;2022-07-09T02:02:34;101368.66;;;17.17;50.13
46583;BME280;32309;48.858;8.252;2022-07-09T02:04:34;101367.75;;;17.18;50.17
46583;BME280;32309;48.858;8.252;2022-07-09T02:06:35;101363.66;;;17.13;49.93
46583;BME280;32309;48.858;8.252;2022-07-09T02:08:35;101357.59;;;17.13;50.53
46583;BME280;32309;48.858;8.252;2022-07-09T02:10:36;101365.53;;;17.11;50.11
46583;BME280;32309;48.858;8.252;2022-07-09T02:12:36;101361.25;;;17.10;49.39
46583;BME280;32309;48.858;8.252;2022-07-09T02:14:37;101362.28;;;17.08;50.04
46583;BME280;32309;48.858;8.252;2022-07-09T02:16:38;101359.88;;;17.05;50.45
46583;BME280;32309;48.858;8.252;2022-07-09T02:18:38;101355.59;;;17.04;49.83
46583;BME280;32309;48.858;8.252;2022-07-09T02:20:38;101358.81;;;16.94;50.27
46583;BME280;32309;48.858;8.252;2022-07-09T02:22:39;101357.25;;;16.92;50.62
46583;BME280;32309;48.858;8.252;2022-07-09T02:24:39;101351.91;;;16.93;50.75
46583;BME280;32309;48.858;8.252;2022-07-09T02:26:39;101359.00;;;16.91;51.02
46583;BME280;32309;48.858;8.252;2022-07-09T02:28:39;101362.56;;;16.90;50.88
46583;BME280;32309;48.858;8.252;2022-07-09T02:30:40;101360.88;;;16.89;51.03
46583;BME280;32309;48.858;8.252;2022-07-09T02:32:40;101358.25;;;16.89;51.06
46583;BME280;32309;48.858;8.252;2022-07-09T02:34:40;101353.22;;;16.86;51.03
46583;BME280;32309;48.858;8.252;2022-07-09T02:36:40;101354.38;;;16.82;50.68
46583;BME280;32309;48.858;8.252;2022-07-09T02:38:41;101358.78;;;16.82;50.99
46583;BME280;32309;48.858;8.252;2022-07-09T02:40:41;101360.47;;;16.83;50.92
46583;BME280;32309;48.858;8.252;2022-07-09T02:42:41;101356.88;;;16.84;49.78
46583;BME280;32309;48.858;8.252;2022-07-09T02:44:42;101357.09;;;16.80;50.49
46583;BME280;32309;48.858;8.252;2022-07-09T02:46:43;101357.09;;;16.80;51.29
46583;BME280;32309;48.858;8.252;2022-07-09T02:48:43;101363.91;;;16.83;51.12
46583;BME280;32309;48.858;8.252;2022-07-09T02:50:44;101356.34;;;16.78;50.46
46583;BME280;32309;48.858;8.252;2022-07-09T02:52:44;101361.03;;;16.73;51.39
46583;BME280;32309;48.858;8.252;2022-07-09T02:54:45;101360.97;;;16.75;50.97
46583;BME280;32309;48.858;8.252;2022-07-09T02:56:45;101354.25;;;16.71;52.01
46583;BME280;32309;48.858;8.252;2022-07-09T02:58:45;101358.63;;;16.70;51.69
46583;BME280;32309;48.858;8.252;2022-07-09T03:00:45;101356.13;;;16.69;51.16
46583;BME280;32309;48.858;8.252;2022-07-09T03:02:46;101361.34;;;16.69;50.84
46583;BME280;32309;48.858;8.252;2022-07-09T03:04:46;101359.88;;;16.64;51.80
46583;BME280;32309;48.858;8.252;2022-07-09T03:06:46;101364.25;;;16.64;51.40
46583;BME280;32309;48.858;8.252;2022-07-09T03:08:47;101359.88;;;16.64;51.53
46583;BME280;32309;48.858;8.252;2022-07-09T03:10:48;101357.38;;;16.63;51.51
46583;BME280;32309;48.858;8.252;2022-07-09T03:12:51;101358.97;;;16.66;51.87
46583;BME280;32309;48.858;8.252;2022-07-09T03:14:52;101364.91;;;16.68;51.88
46583;BME280;32309;48.858;8.252;2022-07-09T03:16:52;101364.09;;;16.67;52.04
46583;BME280;32309;48.858;8.252;2022-07-09T03:18:52;101368.38;;;16.68;51.38
46583;BME280;32309;48.858;8.252;2022-07-09T03:20:52;101365.94;;;16.65;51.77
46583;BME280;32309;48.858;8.252;2022-07-09T03:22:53;101372.88;;;16.66;51.22
46583;BME280;32309;48.858;8.252;2022-07-09T03:24:53;101370.34;;;16.64;51.87
46583;BME280;32309;48.858;8.252;2022-07-09T03:26:54;101375.59;;;16.64;51.48
46583;BME280;32309;48.858;8.252;2022-07-09T03:28:54;101372.13;;;16.64;51.59
46583;BME280;32309;48.858;8.252;2022-07-09T03:30:54;101364.25;;;16.64;52.12
46583;BME280;32309;48.858;8.252;2022-07-09T03:32:55;101367.75;;;16.64;52.24
46583;BME280;32309;48.858;8.252;2022-07-09T03:34:56;101368.56;;;16.65;52.21
46583;BME280;32309;48.858;8.252;2022-07-09T03:36:56;101370.47;;;16.63;51.85
46583;BME280;32309;48.858;8.252;2022-07-09T03:38:56;101368.88;;;16.60;51.19
46583;BME280;32309;48.858;8.252;2022-07-09T03:40:56;101369.28;;;16.54;51.88
46583;BME280;32309;48.858;8.252;2022-07-09T03:42:57;101367.69;;;16.52;51.39
46583;BME280;32309;48.858;8.252;2022-07-09T03:44:57;101377.50;;;16.48;52.11
46583;BME280;32309;48.858;8.252;2022-07-09T03:46:57;101368.09;;;16.45;52.41
46583;BME280;32309;48.858;8.252;2022-07-09T03:48:58;101368.09;;;16.45;52.11
46583;BME280;32309;48.858;8.252;2022-07-09T03:50:58;101367.25;;;16.45;52.51
46583;BME280;32309;48.858;8.252;2022-07-09T03:52:58;101367.38;;;16.43;52.63
46583;BME280;32309;48.858;8.252;2022-07-09T03:54:59;101360.34;;;16.44;52.61
46583;BME280;32309;48.858;8.252;2022-07-09T03:56:59;101363.81;;;16.44;51.88
46583;BME280;32309;48.858;8.252;2022-07-09T03:58:59;101366.22;;;16.47;52.15
46583;BME280;32309;48.858;8.252;2022-07-09T04:00:59;101368.72;;;16.49;52.25
46583;BME280;32309;48.858;8.252;2022-07-09T04:03:00;101365.91;;;16.52;52.41
46583;BME280;32309;48.858;8.252;2022-07-09T04:05:00;101366.75;;;16.53;53.10
46583;BME280;32309;48.858;8.252;2022-07-09T04:07:00;101364.97;;;16.53;52.52
46583;BME280;32309;48.858;8.252;2022-07-09T04:09:01;101367.59;;;16.53;52.96
46583;BME280;32309;48.858;8.252;2022-07-09T04:11:04;101367.69;;;16.52;52.79
46583;BME280;32309;48.858;8.252;2022-07-09T04:13:04;101374.72;;;16.51;52.76
46583;BME280;32309;48.858;8.252;2022-07-09T04:15:04;101372.22;;;16.50;52.95
46583;BME280;32309;48.858;8.252;2022-07-09T04:17:05;101367.06;;;16.48;52.60
46583;BME280;32309;48.858;8.252;2022-07-09T04:19:06;101373.03;;;16.50;51.91
46583;BME280;32309;48.858;8.252;2022-07-09T04:21:07;101371.34;;;16.49;52.69
46583;BME280;32309;48.858;8.252;2022-07-09T04:23:07;101377.44;;;16.50;52.27
46583;BME280;32309;48.858;8.252;2022-07-09T04:25:07;101372.28;;;16.48;52.91
46583;BME280;32309;48.858;8.252;2022-07-09T04:27:08;101372.22;;;16.50;53.26
46583;BME280;32309;48.858;8.252;2022-07-09T04:29:08;101379.19;;;16.49;53.12
46583;BME280;32309;48.858;8.252;2022-07-09T04:31:08;101372.28;;;16.48;52.98
46583;BME280;32309;48.858;8.252;2022-07-09T04:33:08;101375.56;;;16.52;52.74
46583;BME280;32309;48.858;8.252;2022-07-09T04:35:09;101373.88;;;16.51;52.74
46583;BME280;32309;48.858;8.252;2022-07-09T04:37:09;101372.81;;;16.53;53.51
46583;BME280;32309;48.858;8.252;2022-07-09T04:39:09;101373.47;;;16.57;53.47
46583;BME280;32309;48.858;8.252;2022-07-09T04:41:10;101372.53;;;16.58;53.17
46583;BME280;32309;48.858;8.252;2022-07-09T04:43:10;101371.50;;;16.60;52.97
46583;BME280;32309;48.858;8.252;2022-07-09T04:45:10;101371.28;;;16.63;53.22
46583;BME280;32309;48.858;8.252;2022-07-09T04:47:11;101371.94;;;16.67;53.01
46583;BME280;32309;48.858;8.252;2022-07-09T04:49:11;101367.34;;;16.71;53.35
46583;BME280;32309;48.858;8.252;2022-07-09T04:51:11;101368.91;;;16.73;51.98
46583;BME280;32309;48.858;8.252;2022-07-09T04:53:12;101364.50;;;16.74;53.20
46583;BME280;32309;48.858;8.252;2022-07-09T04:55:12;101371.31;;;16.76;52.39
46583;BME280;32309;48.858;8.252;2022-07-09T04:57:12;101373.84;;;16.78;52.76
46583;BME280;32309;48.858;8.252;2022-07-09T04:59:13;101366.81;;;16.78;52.49
46583;BME280;32309;48.858;8.252;2022-07-09T05:01:13;101371.97;;;16.80;52.90
46583;BME280;32309;48.858;8.252;2022-07-09T05:03:13;101372.69;;;16.82;51.65
46583;BME280;32309;48.858;8.252;2022-07-09T05:05:14;101368.50;;;16.79;51.80
46583;BME280;32309;48.858;8.252;2022-07-09T05:07:14;101373.63;;;16.81;52.73
46583;BME280;32309;48.858;8.252;2022-07-09T05:09:14;101371.00;;;16.81;53.01
46583;BME280;32309;48.858;8.252;2022-07-09T05:11:15;101371.75;;;16.83;52.73
46583;BME280;32309;48.858;8.252;2022-07-09T05:13:15;101369.84;;;16.85;53.11
46583;BME280;32309;48.858;8.252;2022-07-09T05:15:15;101367.16;;;16.87;52.90
46583;BME280;32309;48.858;8.252;2022-07-09T05:17:16;101369.78;;;16.87;53.11
46583;BME280;32309;48.858;8.252;2022-07-09T05:19:16;101370.50;;;16.89;52.68
46583;BME280;32309;48.858;8.252;2022-07-09T05:21:16;101370.34;;;16.92;52.75
46583;BME280;32309;48.858;8.252;2022-07-09T05:23:17;101369.28;;;16.94;51.43
46583;BME280;32309;48.858;8.252;2022-07-09T05:25:17;101375.38;;;16.95;52.94
46583;BME280;32309;48.858;8.252;2022-07-09T05:27:17;101370.56;;;17.02;52.69
46583;BME280;32309;48.858;8.252;2022-07-09T05:29:18;101368.25;;;17.10;52.58
46583;BME280;32309;48.858;8.252;2022-07-09T05:31:18;101373.63;;;17.21;52.48
46583;BME280;32309;48.858;8.252;2022-07-09T05:33:18;101363.56;;;17.28;52.50
46583;BME280;32309;48.858;8.252;2022-07-09T05:35:19;101372.34;;;17.40;51.93
46583;BME280;32309;48.858;8.252;2022-07-09T05:37:19;101368.88;;;17.52;51.41
46583;BME280;32309;48.858;8.252;2022-07-09T05:39:19;101363.00;;;17.61;51.63
46583;BME280;32309;48.858;8.252;2022-07-09T05:41:22;101367.59;;;17.71;51.16
46583;BME280;32309;48.858;8.252;2022-07-09T05:43:22;101366.63;;;17.85;50.09
46583;BME280;32309;48.858;8.252;2022-07-09T05:45:23;101372.59;;;18.00;50.45
46583;BME280;32309;48.858;8.252;2022-07-09T05:47:23;101366.47;;;18.12;50.55
46583;BME280;32309;48.858;8.252;2022-07-09T05:49:23;101366.28;;;18.26;50.24
46583;BME280;32309;48.858;8.252;2022-07-09T05:51:23;101373.41;;;18.37;49.79
46583;BME280;32309;48.858;8.252;2022-07-09T05:53:24;101372.50;;;18.50;49.70
46583;BME280;32309;48.858;8.252;2022-07-09T05:55:24;101367.19;;;18.62;49.33
46583;BME280;32309;48.858;8.252;2022-07-09T05:57:24;101359.69;;;18.69;49.30
46583;BME280;32309;48.858;8.252;2022-07-09T05:59:25;101368.53;;;18.79;49.27
46583;BME280;32309;48.858;8.252;2022-07-09T06:01:25;101365.84;;;18.92;49.13
46583;BME280;32309;48.858;8.252;2022-07-09T06:03:25;101367.44;;;19.06;49.16
46583;BME280;32309;48.858;8.252;2022-07-09T06:05:26;101368.66;;;19.14;48.83
46583;BME280;32309;48.858;8.252;2022-07-09T06:07:26;101364.81;;;19.29;49.30
46583;BME280;32309;48.858;8.252;2022-07-09T06:09:26;101364.72;;;19.42;48.36
46583;BME280;32309;48.858;8.252;2022-07-09T06:11:27;101363.75;;;19.54;48.24
46583;BME280;32309;48.858;8.252;2022-07-09T06:13:27;101356.59;;;19.68;48.08
46583;BME280;32309;48.858;8.252;2022-07-09T06:15:28;101356.44;;;19.81;47.63
46583;BME280;32309;48.858;8.252;2022-07-09T06:17:28;101355.53;;;19.82;47.97
46583;BME280;32309;48.858;8.252;2022-07-09T06:19:28;101357.91;;;19.85;47.37
46583;BME280;32309;48.858;8.252;2022-07-09T06:21:29;101358.16;;;19.82;47.37
46583;BME280;32309;48.858;8.252;2022-07-09T06:23:29;101357.19;;;19.83;47.56
46583;BME280;32309;48.858;8.252;2022-07-09T06:25:29;101356.59;;;19.90;47.94
46583;BME280;32309;48.858;8.252;2022-07-09T06:27:30;101351.69;;;19.97;47.64
46583;BME280;32309;48.858;8.252;2022-07-09T06:29:30;101350.06;;;20.06;47.60
46583;BME280;32309;48.858;8.252;2022-07-09T06:31:31;101351.13;;;20.15;47.63
46583;BME280;32309;48.858;8.252;2022-07-09T06:33:31;101348.72;;;20.23;47.36
46583;BME280;32309;48.858;8.252;2022-07-09T06:35:31;101344.63;;;20.30;47.48
46583;BME280;32309;48.858;8.252;2022-07-09T06:37:32;101349.19;;;20.28;47.13
46583;BME280;32309;48.858;8.252;2022-07-09T06:39:33;101343.53;;;20.33;46.80
46583;BME280;32309;48.858;8.252;2022-07-09T06:41:45;101345.56;;;20.40;47.08
46583;BME280;32309;48.858;8.252;2022-07-09T06:43:46;101334.13;;;20.51;47.36
46583;BME280;32309;48.858;8.252;2022-07-09T06:45:46;101339.31;;;20.62;47.14
46583;BME280;32309;48.858;8.252;2022-07-09T06:47:46;101333.69;;;20.67;46.99
46583;BME280;32309;48.858;8.252;2022-07-09T06:49:47;101342.75;;;20.74;46.85
46583;BME280;32309;48.858;8.252;2022-07-09T06:51:47;101333.97;;;20.85;46.71
46583;BME280;32309;48.858;8.252;2022-07-09T06:53:47;101338.34;;;20.96;46.41
46583;BME280;32309;48.858;8.252;2022-07-09T06:55:48;101334.47;;;21.00;46.41
46583;BME280;32309;48.858;8.252;2022-07-09T06:57:51;101335.06;;;21.04;46.37
46583;BME280;32309;48.858;8.252;2022-07-09T06:59:51;101338.13;;;21.09;46.25
46583;BME280;32309;48.858;8.252;2022-07-09T07:01:51;101338.16;;;21.19;46.37
46583;BME280;32309;48.858;8.252;2022-07-09T07:03:52;101341.09;;;21.25;46.10
46583;BME280;32309;48.858;8.252;2022-07-09T07:05:52;101337.50;;;21.26;46.32
46583;BME280;32309;48.858;8.252;2022-07-09T07:07:52;101336.13;;;21.32;45.97
46583;BME280;32309;48.858;8.252;2022-07-09T07:09:52;101336.19;;;21.42;46.29
46583;BME280;32309;48.858;8.252;2022-07-09T07:11:53;101339.25;;;21.47;46.14
46583;BME280;32309;48.858;8.252;2022-07-09T07:13:53;101330.59;;;21.35;45.78
46583;BME280;32309;48.858;8.252;2022-07-09T07:15:53;101338.34;;;21.27;45.92
46583;BME280;32309;48.858;8.252;2022-07-09T07:17:54;101342.34;;;21.21;46.45
46583;BME280;32309;48.858;8.252;2022-07-09T07:19:54;101342.34;;;21.21;46.52
46583;BME280;32309;48.858;8.252;2022-07-09T07:21:54;101343.16;;;21.22;46.33
46583;BME280;32309;48.858;8.252;2022-07-09T07:23:54;101338.19;;;21.28;46.54
46583;BME280;32309;48.858;8.252;2022-07-09T07:25:54;101341.28;;;21.34;46.84
46583;BME280;32309;48.858;8.252;2022-07-09T07:27:55;101337.41;;;21.38;47.07
46583;BME280;32309;48.858;8.252;2022-07-09T07:29:55;101343.00;;;21.44;46.85
46583;BME280;32309;48.858;8.252;2022-07-09T07:31:55;101334.19;;;21.55;47.21
46583;BME280;32309;48.858;8.252;2022-07-09T07:33:57;101336.16;;;21.63;47.22
46583;BME280;32309;48.858;8.252;2022-07-09T07:35:59;101335.88;;;21.76;46.30
46583;BME280;32309;48.858;8.252;2022-07-09T07:37:59;101335.06;;;21.75;46.29
46583;BME280;32309;48.858;8.252;2022-07-09T07:40:00;101339.38;;;21.76;46.08
46583;BME280;32309;48.858;8.252;2022-07-09T07:42:00;101333.44;;;21.84;46.17
46583;BME280;32309;48.858;8.252;2022-07-09T07:44:00;101332.47;;;21.95;46.19
46583;BME280;32309;48.858;8.252;2022-07-09T07:46:01;101329.25;;;22.01;45.94
46583;BME280;32309;48.858;8.252;2022-07-09T07:48:01;101332.31;;;22.06;46.19
46583;BME280;32309;48.858;8.252;2022-07-09T07:50:02;101330.97;;;22.12;45.77
46583;BME280;32309;48.858;8.252;2022-07-09T07:52:03;101326.91;;;22.18;46.23
46583;BME280;32309;48.858;8.252;2022-07-09T07:54:05;101322.88;;;22.23;45.96
46583;BME280;32309;48.858;8.252;2022-07-09T07:56:06;101315.66;;;22.25;46.04
46583;BME280;32309;48.858;8.252;2022-07-09T07:58:07;101319.53;;;22.31;45.70
46583;BME280;32309;48.858;8.252;2022-07-09T08:00:07;101316.38;;;22.37;45.68
46583;BME280;32309;48.858;8.252;2022-07-09T08:02:08;101314.97;;;22.43;45.52
46583;BME280;32309;48.858;8.252;2022-07-09T08:04:08;101308.44;;;22.47;45.43
46583;BME280;32309;48.858;8.252;2022-07-09T08:06:08;101315.25;;;22.50;45.27
46583;BME280;32309;48.858;8.252;2022-07-09T08:08:09;101312.88;;;22.56;44.89
46583;BME280;32309;48.858;8.252;2022-07-09T08:10:09;101311.63;;;22.60;43.57
46583;BME280;32309;48.858;8.252;2022-07-09T08:12:09;101305.25;;;22.53;43.85
46583;BME280;32309;48.858;8.252;2022-07-09T08:14:10;101304.28;;;22.54;43.98
46583;BME280;32309;48.858;8.252;2022-07-09T08:16:10;101312.63;;;22.59;43.28
46583;BME280;32309;48.858;8.252;2022-07-09T08:18:10;101306.88;;;22.64;43.14
46583;BME280;32309;48.858;8.252;2022-07-09T08:20:12;101305.78;;;22.67;43.16
46583;BME280;32309;48.858;8.252;2022-07-09T08:22:13;101306.75;;;22.75;42.10
46583;BME280;32309;48.858;8.252;2022-07-09T08:24:13;101304.09;;;22.75;42.44
46583;BME280;32309;48.858;8.252;2022-07-09T08:26:13;101300.84;;;22.82;42.45
46583;BME280;32309;48.858;8.252;2022-07-09T08:28:13;101304.63;;;22.89;42.74
46583;BME280;32309;48.858;8.252;2022-07-09T08:30:14;101302.31;;;23.04;42.69
46583;BME280;32309;48.858;8.252;2022-07-09T08:32:14;101295.34;;;23.13;42.34
46583;BME280;32309;48.858;8.252;2022-07-09T08:34:15;101295.66;;;23.09;41.87
46583;BME280;32309;48.858;8.252;2022-07-09T08:36:15;101298.00;;;23.13;42.04
46583;BME280;32309;48.858;8.252;2022-07-09T08:38:16;101287.38;;;23.22;43.08
46583;BME280;32309;48.858;8.252;2022-07-09T08:40:16;101281.22;;;23.32;42.63
46583;BME280;32309;48.858;8.252;2022-07-09T08:42:17;101290.66;;;23.34;42.61
46583;BME280;32309;48.858;8.252;2022-07-09T08:44:17;101289.13;;;23.41;42.46
46583;BME280;32309;48.858;8.252;2022-07-09T08:46:19;101289.78;;;23.43;42.29
46583;BME280;32309;48.858;8.252;2022-07-09T08:48:20;101280.47;;;23.39;42.38
46583;BME280;32309;48.858;8.252;2022-07-09T08:50:21;101280.78;;;23.36;42.66
46583;BME280;32309;48.858;8.252;2022-07-09T08:52:25;101281.34;;;23.40;42.87
46583;BME280;32309;48.858;8.252;2022-07-09T08:54:26;101287.91;;;23.54;42.46
46583;BME280;32309;48.858;8.252;2022-07-09T08:56:28;101281.50;;;23.56;42.32
46583;BME280;32309;48.858;8.252;2022-07-09T08:58:28;101284.84;;;23.58;42.29
46583;BME280;32309;48.858;8.252;2022-07-09T09:00:28;101279.94;;;23.64;41.67
46583;BME280;32309;48.858;8.252;2022-07-09T09:02:33;101278.94;;;23.65;41.67
46583;BME280;32309;48.858;8.252;2022-07-09T09:04:37;101271.91;;;23.73;41.48
46583;BME280;32309;48.858;8.252;2022-07-09T09:06:39;101265.03;;;23.81;41.63
46583;BME280;32309;48.858;8.252;2022-07-09T09:10:40;101264.41;;;23.97;41.57
46583;BME280;32309;48.858;8.252;2022-07-09T09:12:44;101266.25;;;24.04;40.85
46583;BME280;32309;48.858;8.252;2022-07-09T09:14:48;101258.09;;;23.98;40.61
46583;BME280;32309;48.858;8.252;2022-07-09T09:16:49;101260.47;;;24.01;40.76
46583;BME280;32309;48.858;8.252;2022-07-09T09:18:50;101258.84;;;24.08;40.72
46583;BME280;32309;48.858;8.252;2022-07-09T09:20:52;101258.91;;;24.16;40.75
46583;BME280;32309;48.858;8.252;2022-07-09T09:23:01;101258.31;;;24.22;39.05
46583;BME280;32309;48.858;8.252;2022-07-09T09:25:15;101253.22;;;24.29;39.07
46583;BME280;32309;48.858;8.252;2022-07-09T09:29:51;101249.44;;;24.32;39.47
46583;BME280;32309;48.858;8.252;2022-07-09T09:31:52;101248.13;;;24.36;40.76
46583;BME280;32309;48.858;8.252;2022-07-09T09:34:10;101249.03;;;24.45;40.82
46583;BME280;32309;48.858;8.252;2022-07-09T09:36:38;101243.03;;;24.42;38.83
46583;BME280;32309;48.858;8.252;2022-07-09T09:38:41;101247.84;;;24.39;38.86
46583;BME280;32309;48.858;8.252;2022-07-09T09:40:45;101242.06;;;24.43;38.45
46583;BME280;32309;48.858;8.252;2022-07-09T09:42:46;101238.97;;;24.48;39.57
46583;BME280;32309;48.858;8.252;2022-07-09T09:44:48;101243.78;;;24.53;39.07
46583;BME280;32309;48.858;8.252;2022-07-09T09:46:50;101234.34;;;24.58;39.49
46583;BME280;32309;48.858;8.252;2022-07-09T09:48:50;101240.66;;;24.57;39.17
46583;BME280;32309;48.858;8.252;2022-07-09T09:50:51;101235.03;;;24.61;39.72
46583;BME280;32309;48.858;8.252;2022-07-09T09:52:55;101233.53;;;24.58;38.05
46583;BME280;32309;48.858;8.252;2022-07-09T09:54:55;101233.13;;;24.63;39.38
46583;BME280;32309;48.858;8.252;2022-07-09T09:56:56;101230.47;;;24.63;38.68
46583;BME280;32309;48.858;8.252;2022-07-09T09:58:59;101232.81;;;24.74;38.75
46583;BME280;32309;48.858;8.252;2022-07-09T10:00:59;101231.06;;;24.83;38.67
46583;BME280;32309;48.858;8.252;2022-07-09T10:03:01;101230.56;;;24.87;38.22
46583;BME280;32309;48.858;8.252;2022-07-09T10:05:02;101228.88;;;24.86;38.43
46583;BME280;32309;48.858;8.252;2022-07-09T10:07:06;101228.94;;;24.95;38.53
46583;BME280;32309;48.858;8.252;2022-07-09T10:09:09;101225.34;;;25.04;38.01
46583;BME280;32309;48.858;8.252;2022-07-09T10:11:11;101227.69;;;25.15;37.69
46583;BME280;32309;48.858;8.252;2022-07-09T10:13:18;101220.88;;;25.13;37.57
46583;BME280;32309;48.858;8.252;2022-07-09T10:15:23;101229.69;;;25.13;37.79
46583;BME280;32309;48.858;8.252;2022-07-09T10:17:26;101225.84;;;25.07;37.60
46583;BME280;32309;48.858;8.252;2022-07-09T10:19:28;101223.94;;;24.91;37.21
46583;BME280;32309;48.858;8.252;2022-07-09T10:21:33;101223.75;;;24.85;38.45
46583;BME280;32309;48.858;8.252;2022-07-09T10:23:47;101216.41;;;24.70;37.45
46583;BME280;32309;48.858;8.252;2022-07-09T10:25:49;101221.34;;;24.65;37.54
46583;BME280;32309;48.858;8.252;2022-07-09T10:27:55;101211.56;;;24.39;38.19
46583;BME280;32309;48.858;8.252;2022-07-09T10:29:57;101216.19;;;24.37;38.23
46583;BME280;32309;48.858;8.252;2022-07-09T10:31:59;101213.59;;;24.46;38.49
46583;BME280;32309;48.858;8.252;2022-07-09T10:34:01;101206.44;;;24.64;37.78
46583;BME280;32309;48.858;8.252;2022-07-09T10:36:10;101206.84;;;24.78;37.64
46583;BME280;32309;48.858;8.252;2022-07-09T10:38:13;101211.19;;;24.87;37.78
46583;BME280;32309;48.858;8.252;2022-07-09T10:40:15;101208.53;;;24.87;37.68
46583;BME280;32309;48.858;8.252;2022-07-09T10:42:20;101211.53;;;24.92;37.64
46583;BME280;32309;48.858;8.252;2022-07-09T10:44:27;101207.59;;;25.04;36.89